Time;durP1;ratioP1;P1;durP2;ratioP2;P2;SDS_P1;SDS_P2;PMS_P1;PMS_P2;Temp;Humidity;BMP_temperature;BMP_pressure;BME280_temperature;BME280_humidity;BME280_pressure;Samples;Min_cycle;Max_cycle;Signal;HPM_P1;HPM_P2
2021/07/10 00:00:19;;;;;;;5.00;4.50;;;;;;;29.69;45.54;101736.89;1745997;81;20974;-45
2021/07/10 00:02:46;;;;;;;7.42;4.37;;;;;;;29.67;45.67;101732.63;1752301;80;20970;-48
2021/07/10 00:05:15;;;;;;;8.70;4.83;;;;;;;29.66;45.89;101733.11;1750181;80;20986;-47
2021/07/10 00:07:43;;;;;;;9.55;5.53;;;;;;;29.64;45.92;101724.83;1742506;80;20982;-47
2021/07/10 00:10:13;;;;;;;8.28;5.03;;;;;;;29.64;45.75;101728.37;1710112;83;20994;-49
2021/07/10 00:12:40;;;;;;;7.85;5.15;;;;;;;29.65;45.86;101730.08;1770354;80;21520;-45
2021/07/10 00:15:08;;;;;;;9.43;5.85;;;;;;;29.66;46.06;101716.16;1753935;80;20995;-50
2021/07/10 00:17:35;;;;;;;13.22;6.70;;;;;;;29.67;46.09;101720.55;1747245;81;20970;-45
2021/07/10 00:20:03;;;;;;;10.58;5.60;;;;;;;29.69;45.91;101717.25;1743567;80;20971;-44
2021/07/10 00:22:31;;;;;;;7.12;5.97;;;;;;;29.70;45.30;101718.93;1739549;81;20998;-49
2021/07/10 00:24:58;;;;;;;12.75;5.70;;;;;;;29.70;44.89;101716.25;1763067;80;21473;-48
2021/07/10 00:27:24;;;;;;;8.78;6.00;;;;;;;29.70;44.65;101713.56;1744128;81;21042;-48
2021/07/10 00:29:51;;;;;;;8.48;6.00;;;;;;;29.69;44.69;101714.08;1767203;80;21497;-44
2021/07/10 00:32:17;;;;;;;7.05;5.87;;;;;;;29.67;44.86;101705.80;1746696;80;20988;-47
2021/07/10 00:34:44;;;;;;;8.08;5.87;;;;;;;29.65;44.95;101707.77;1752546;81;21510;-44
2021/07/10 00:37:11;;;;;;;10.18;6.17;;;;;;;29.62;44.65;101705.34;1762288;80;20955;-48
2021/07/10 00:39:37;;;;;;;8.25;6.30;;;;;;;29.60;44.58;101700.59;1755459;80;21555;-47
2021/07/10 00:42:04;;;;;;;12.30;6.28;;;;;;;29.58;44.44;101701.22;1753481;80;21041;-50
2021/07/10 00:44:30;;;;;;;18.67;7.78;;;;;;;29.55;44.49;101702.33;1705122;83;21002;-51
2021/07/10 00:46:59;;;;;;;13.13;6.12;;;;;;;29.53;44.65;101707.49;1705633;82;21029;-48
2021/07/10 00:49:25;;;;;;;10.25;6.37;;;;;;;29.51;44.56;101704.09;1696007;83;21482;-47
2021/07/10 00:51:52;;;;;;;7.75;5.90;;;;;;;29.49;44.57;101703.38;1743643;81;21064;-46
2021/07/10 00:54:18;;;;;;;6.45;5.22;;;;;;;29.47;44.53;101702.66;1759964;80;21009;-47
2021/07/10 00:56:45;;;;;;;7.70;6.47;;;;;;;29.47;44.39;101712.05;1753563;80;21502;-44
2021/07/10 00:59:13;;;;;;;9.70;6.50;;;;;;;29.45;44.58;101705.96;1746025;81;21061;-47
2021/07/10 01:01:40;;;;;;;11.10;5.95;;;;;;;29.45;44.83;101705.45;1769691;80;20983;-44
2021/07/10 01:04:07;;;;;;;11.53;6.28;;;;;;;29.45;45.07;101699.26;1749838;81;21504;-48
2021/07/10 01:06:34;;;;;;;7.33;5.25;;;;;;;29.44;45.07;101702.42;1757211;80;20979;-45
2021/07/10 01:09:02;;;;;;;9.18;5.65;;;;;;;29.42;45.16;101695.48;1712426;81;21445;-45
2021/07/10 01:11:30;;;;;;;11.63;6.50;;;;;;;29.41;45.02;101701.81;1748532;81;21446;-50
2021/07/10 01:13:58;;;;;;;9.85;5.90;;;;;;;29.39;44.96;101701.09;1737704;80;20974;-48
2021/07/10 01:16:25;;;;;;;8.78;5.40;;;;;;;29.38;45.13;101700.27;1750094;80;21436;-44
2021/07/10 01:18:53;;;;;;;8.78;5.90;;;;;;;29.37;45.03;101701.23;1744384;80;20951;-47
2021/07/10 01:21:20;;;;;;;9.50;5.62;;;;;;;29.37;44.75;101696.35;1741827;80;20979;-47
2021/07/10 01:23:48;;;;;;;11.68;6.00;;;;;;;29.37;44.57;101699.89;1741390;81;21027;-44
2021/07/10 01:26:15;;;;;;;10.78;6.30;;;;;;;29.36;44.49;101700.89;1752227;81;21027;-49
2021/07/10 01:28:42;;;;;;;11.53;6.10;;;;;;;29.36;44.44;101700.03;1771528;80;21002;-46
2021/07/10 01:31:09;;;;;;;8.23;5.70;;;;;;;29.36;44.47;101700.03;1747929;80;21482;-47
2021/07/10 01:33:36;;;;;;;7.55;5.90;;;;;;;29.35;44.36;101703.67;1742413;80;20959;-45
2021/07/10 01:36:04;;;;;;;9.43;6.28;;;;;;;29.33;44.48;101698.94;1732821;81;21006;-47
2021/07/10 01:38:30;;;;;;;8.03;5.78;;;;;;;29.31;44.69;101696.88;1761833;80;20995;-44
2021/07/10 01:40:57;;;;;;;7.95;5.62;;;;;;;29.28;44.48;101697.16;1767833;80;20958;-46
2021/07/10 01:43:25;;;;;;;9.00;5.53;;;;;;;29.25;44.32;101699.60;1752787;80;20999;-44
2021/07/10 01:45:52;;;;;;;7.10;5.22;;;;;;;29.23;44.36;101692.19;1747082;81;21044;-48
2021/07/10 01:48:19;;;;;;;7.87;5.47;;;;;;;29.20;44.48;101687.58;1745101;80;20975;-48
2021/07/10 01:50:47;;;;;;;11.75;5.45;;;;;;;29.17;44.64;101690.02;1752399;80;20981;-48
2021/07/10 01:53:15;;;;;;;9.78;5.60;;;;;;;29.14;44.54;101681.37;1760059;80;20983;-46
2021/07/10 01:55:41;;;;;;;9.68;5.37;;;;;;;29.12;44.91;101687.35;1771690;80;21489;-50
2021/07/10 01:58:09;;;;;;;11.60;5.35;;;;;;;29.10;45.04;101686.63;1762407;80;20986;-48
2021/07/10 02:00:43;;;;;;;12.33;5.58;;;;;;;29.08;45.26;101691.27;1752473;80;21005;-49
2021/07/10 02:03:11;;;;;;;7.25;5.45;;;;;;;29.09;45.44;101696.98;1745423;80;22120;-48
2021/07/10 02:05:39;;;;;;;10.60;6.35;;;;;;;29.11;45.42;101695.88;1753872;80;21482;-46
2021/07/10 02:08:06;;;;;;;8.83;6.15;;;;;;;29.12;45.39;101700.23;1756829;80;21041;-45
2021/07/10 02:10:33;;;;;;;7.70;5.03;;;;;;;29.11;45.34;101704.39;1747205;80;21470;-47
2021/07/10 02:13:09;;;;;;;11.03;5.42;;;;;;;29.12;45.39;101708.80;1748451;81;20963;-45
2021/07/10 02:15:36;;;;;;;7.05;5.00;;;;;;;29.09;45.65;101705.02;1627213;87;21024;-46
2021/07/10 02:18:04;;;;;;;9.10;5.00;;;;;;;29.08;45.93;101715.39;1628997;87;21075;-47
2021/07/10 02:20:32;;;;;;;11.03;4.90;;;;;;;29.04;45.61;101713.95;1636985;87;21044;-50
2021/07/10 02:23:00;;;;;;;8.08;5.40;;;;;;;29.02;45.57;101711.89;1640721;87;21087;-44
2021/07/10 02:25:28;;;;;;;7.90;4.97;;;;;;;29.02;45.67;101715.91;1636771;87;20986;-47
2021/07/10 02:27:55;;;;;;;8.93;4.85;;;;;;;29.02;45.64;101711.89;1624018;87;21546;-45
2021/07/10 02:30:27;;;;;;;7.40;5.28;;;;;;;29.01;45.71;101716.88;1637277;87;21003;-51
2021/07/10 02:32:55;;;;;;;4.83;4.33;;;;;;;28.98;46.02;101710.79;1636719;87;21591;-44
2021/07/10 02:35:22;;;;;;;8.43;5.12;;;;;;;28.98;46.21;101705.43;1635144;87;21440;-48
2021/07/10 02:37:49;;;;;;;7.28;5.15;;;;;;;28.97;46.10;101709.08;1629931;87;21031;-50
2021/07/10 02:40:18;;;;;;;10.63;4.80;;;;;;;28.96;45.84;101710.06;1630290;86;21072;-44
2021/07/10 02:42:45;;;;;;;7.78;5.42;;;;;;;28.93;45.98;101706.29;1637908;87;20988;-45
2021/07/10 02:45:14;;;;;;;7.37;5.37;;;;;;;28.92;45.87;101705.95;1616475;87;21019;-47
2021/07/10 02:47:42;;;;;;;10.40;5.12;;;;;;;28.91;45.37;101703.41;1631857;87;21040;-44
2021/07/10 02:50:13;;;;;;;7.00;5.12;;;;;;;28.89;45.56;101700.83;1633732;86;21553;-49
2021/07/10 02:52:40;;;;;;;11.33;5.25;;;;;;;28.89;45.50;101700.83;1636338;87;21000;-46
2021/07/10 02:55:07;;;;;;;6.78;5.00;;;;;;;28.90;45.06;101702.55;1636276;86;21087;-44
2021/07/10 02:57:34;;;;;;;11.83;5.00;;;;;;;28.90;44.80;101710.58;1621921;87;21023;-45
2021/07/10 03:00:02;;;;;;;6.78;4.80;;;;;;;28.89;44.73;101709.38;1640017;87;21504;-44
2021/07/10 03:02:29;;;;;;;7.50;4.95;;;;;;;28.88;44.44;101708.52;1624420;87;21536;-49
2021/07/10 03:04:56;;;;;;;16.20;5.70;;;;;;;28.88;44.18;101715.22;1636360;87;21034;-44
2021/07/10 03:07:24;;;;;;;8.20;5.75;;;;;;;28.87;44.25;101705.47;1629037;87;21009;-47
2021/07/10 03:09:50;;;;;;;11.53;5.40;;;;;;;28.87;44.31;101705.47;1635659;87;21059;-44
2021/07/10 03:12:19;;;;;;;10.35;6.05;;;;;;;28.87;44.40;101704.64;1687246;81;20995;-45
2021/07/10 03:14:45;;;;;;;10.40;5.30;;;;;;;28.89;44.55;101701.34;1752058;80;21043;-44
2021/07/10 03:17:13;;;;;;;8.28;5.35;;;;;;;28.89;44.36;101708.87;1760472;80;20990;-47
2021/07/10 03:19:42;;;;;;;9.60;4.92;;;;;;;28.89;44.27;101708.04;1752325;80;20931;-48
2021/07/10 03:22:08;;;;;;;11.05;5.12;;;;;;;28.90;44.13;101707.91;1759057;80;21025;-47
2021/07/10 03:24:35;;;;;;;10.43;5.03;;;;;;;28.89;44.06;101706.19;1746770;80;21044;-44
2021/07/10 03:27:02;;;;;;;6.83;4.62;;;;;;;28.88;43.76;101709.86;1751366;80;20970;-45
2021/07/10 03:29:29;;;;;;;6.00;4.25;;;;;;;28.87;43.44;101705.47;1736160;80;21474;-45
2021/07/10 03:31:55;;;;;;;8.95;4.65;;;;;;;28.87;43.40;101697.43;1737831;80;21029;-44
2021/07/10 03:34:22;;;;;;;8.60;4.60;;;;;;;28.88;43.32;101695.13;1747790;81;20978;-48
2021/07/10 03:36:48;;;;;;;9.48;5.00;;;;;;;28.90;43.30;101693.17;1745034;80;20963;-48
2021/07/10 03:39:15;;;;;;;5.33;4.10;;;;;;;28.92;43.53;101691.69;1755352;80;21601;-48
2021/07/10 03:41:42;;;;;;;4.97;4.05;;;;;;;28.95;43.63;101688.26;1748927;80;21443;-50
2021/07/10 03:44:08;;;;;;;7.08;4.25;;;;;;;29.03;43.20;101693.47;1758553;81;20995;-46
2021/07/10 03:46:35;;;;;;;9.48;4.55;;;;;;;29.16;43.00;101702.23;1764267;80;21032;-47
2021/07/10 03:49:02;;;;;;;7.28;4.37;;;;;;;29.38;43.10;101697.59;1763157;80;21005;-48
2021/07/10 03:51:28;;;;;;;6.47;4.28;;;;;;;29.86;42.36;101693.86;1737033;80;21496;-45
2021/07/10 03:53:55;;;;;;;14.53;5.67;;;;;;;30.50;41.17;101691.17;1754710;80;20981;-44
2021/07/10 03:56:22;;;;;;;10.88;4.42;;;;;;;31.24;40.34;101698.23;1776110;80;21367;-46
2021/07/10 03:58:49;;;;;;;7.37;3.85;;;;;;;31.97;38.95;101687.59;1742588;81;20991;-45
2021/07/10 04:01:16;;;;;;;5.22;4.33;;;;;;;32.67;37.46;101682.02;1753964;80;20998;-45
2021/07/10 04:03:42;;;;;;;7.40;4.80;;;;;;;33.33;35.99;101681.94;1763213;80;21054;-48
2021/07/10 04:06:09;;;;;;;7.92;4.87;;;;;;;33.95;34.65;101678.61;1740370;80;20990;-44
2021/07/10 04:08:36;;;;;;;5.92;4.47;;;;;;;34.44;33.40;101669.69;1752866;80;20987;-45
2021/07/10 04:11:03;;;;;;;9.03;4.83;;;;;;;34.61;32.82;101676.85;1744422;80;21478;-47
2021/07/10 04:13:31;;;;;;;11.83;4.87;;;;;;;34.49;32.90;101673.28;1757670;80;21470;-45
2021/07/10 04:16:00;;;;;;;14.70;5.40;;;;;;;34.22;33.17;101673.86;1752221;80;20971;-45
2021/07/10 04:18:27;;;;;;;59.00;8.70;;;;;;;33.88;33.64;101681.63;1751812;80;21008;-47
2021/07/10 04:20:54;;;;;;;37.65;6.40;;;;;;;33.55;34.09;101682.78;1738383;80;21451;-45
2021/07/10 04:23:23;;;;;;;47.35;7.12;;;;;;;33.25;34.45;101684.59;1755290;80;21050;-49
2021/07/10 04:25:49;;;;;;;8.73;5.15;;;;;;;32.96;35.25;101681.28;1748562;80;21003;-45
2021/07/10 04:28:16;;;;;;;12.47;5.67;;;;;;;32.69;35.90;101672.78;1762329;80;20994;-45
2021/07/10 04:30:43;;;;;;;8.75;5.40;;;;;;;32.46;36.71;101678.78;1747793;80;21014;-46
2021/07/10 04:33:10;;;;;;;10.63;5.47;;;;;;;32.21;37.27;101679.47;1746416;80;21533;-48
2021/07/10 04:35:37;;;;;;;9.08;5.55;;;;;;;31.95;37.67;101673.92;1739933;81;20978;-44
2021/07/10 04:38:04;;;;;;;7.58;5.40;;;;;;;31.77;38.06;101676.53;1766801;80;20971;-47
2021/07/10 04:40:30;;;;;;;20.60;6.40;;;;;;;31.59;38.24;101676.96;1755735;80;21545;-44
2021/07/10 04:42:57;;;;;;;8.43;6.33;;;;;;;31.41;38.71;101674.65;1743339;81;20944;-45
2021/07/10 04:45:23;;;;;;;6.45;5.67;;;;;;;31.25;39.23;101679.75;1740777;81;21523;-48
2021/07/10 04:47:51;;;;;;;12.93;6.08;;;;;;;31.08;39.48;101683.16;1741183;80;21030;-46
2021/07/10 04:50:17;;;;;;;6.55;5.95;;;;;;;30.92;39.81;101686.44;1747969;80;21092;-48
2021/07/10 04:52:44;;;;;;;9.80;5.58;;;;;;;30.80;39.89;101683.51;1746878;80;21011;-47
2021/07/10 04:55:14;;;;;;;9.28;6.40;;;;;;;30.70;40.16;101683.14;1750974;81;20959;-45
2021/07/10 04:57:42;;;;;;;12.47;7.30;;;;;;;30.60;40.42;101680.46;1755585;80;20967;-44
2021/07/10 05:00:12;;;;;;;10.15;6.70;;;;;;;30.50;40.81;101672.38;1739022;81;20979;-50
2021/07/10 05:02:39;;;;;;;7.83;6.33;;;;;;;30.44;41.10;101676.95;1728563;80;20946;-45
2021/07/10 05:05:06;;;;;;;9.08;6.42;;;;;;;30.38;41.36;101672.14;1749895;80;21019;-44
2021/07/10 05:07:33;;;;;;;9.15;6.37;;;;;;;30.34;41.60;101680.13;1756563;80;21455;-47
2021/07/10 05:09:59;;;;;;;8.43;6.37;;;;;;;30.30;41.71;101684.08;1771798;80;20974;-45
2021/07/10 05:12:26;;;;;;;11.95;7.15;;;;;;;30.29;41.74;101677.02;1761688;80;20938;-44
2021/07/10 05:14:53;;;;;;;11.97;7.47;;;;;;;30.31;42.09;101677.73;1754485;80;21447;-47
2021/07/10 05:17:20;;;;;;;11.55;7.40;;;;;;;30.37;41.91;101672.30;1754448;80;20986;-49
2021/07/10 05:19:46;;;;;;;7.35;6.62;;;;;;;30.45;41.70;101673.79;1761474;80;21037;-46
2021/07/10 05:22:14;;;;;;;14.68;7.70;;;;;;;30.53;41.39;101672.11;1748422;81;20975;-50
2021/07/10 05:24:42;;;;;;;12.20;6.58;;;;;;;30.65;41.40;101669.27;1760113;80;21003;-48
2021/07/10 05:27:08;;;;;;;10.90;7.28;;;;;;;30.78;41.05;101661.79;1743380;80;20995;-45
2021/07/10 05:29:35;;;;;;;9.95;6.85;;;;;;;30.90;41.21;101670.09;1745360;81;20995;-45
2021/07/10 05:32:04;;;;;;;9.63;7.10;;;;;;;31.02;41.06;101672.49;1741276;80;20981;-48
2021/07/10 05:34:31;;;;;;;18.62;8.18;;;;;;;31.11;40.86;101673.48;1754596;80;20995;-45
2021/07/10 05:36:57;;;;;;;11.83;7.85;;;;;;;31.17;41.01;101679.62;1760699;80;21169;-49
2021/07/10 05:39:24;;;;;;;10.72;7.90;;;;;;;31.19;40.75;101672.27;1736915;81;21019;-47
2021/07/10 05:41:51;;;;;;;12.82;7.97;;;;;;;31.20;41.03;101671.28;1745715;80;21438;-44
2021/07/10 05:44:18;;;;;;;9.98;7.60;;;;;;;31.22;40.78;101669.30;1749724;80;20991;-48
2021/07/10 05:46:44;;;;;;;10.25;7.95;;;;;;;31.26;40.73;101663.47;1738029;80;21024;-44
2021/07/10 05:49:11;;;;;;;11.83;7.72;;;;;;;31.30;40.62;101662.70;1741401;81;21015;-49
2021/07/10 05:51:38;;;;;;;14.63;8.60;;;;;;;31.34;40.29;101658.73;1751332;80;21002;-48
2021/07/10 05:54:06;;;;;;;9.95;7.95;;;;;;;31.38;40.53;101659.27;1751281;80;21477;-50
2021/07/10 05:56:34;;;;;;;15.30;8.45;;;;;;;31.46;40.63;101662.11;1748871;80;20999;-51
2021/07/10 05:59:00;;;;;;;10.50;8.10;;;;;;;31.51;40.39;101659.33;1759614;80;20963;-49
2021/07/10 06:01:28;;;;;;;16.20;8.15;;;;;;;31.57;40.40;101660.61;1750312;80;21060;-47
2021/07/10 06:03:55;;;;;;;18.57;9.00;;;;;;;31.66;40.19;101654.32;1744476;80;21466;-48
2021/07/10 06:06:22;;;;;;;13.60;8.88;;;;;;;31.77;39.94;101660.39;1740136;80;21026;-48
2021/07/10 06:08:50;;;;;;;13.38;8.80;;;;;;;31.87;39.69;101660.33;1743223;80;21515;-54
2021/07/10 06:11:17;;;;;;;10.13;8.55;;;;;;;31.97;39.83;101657.98;1764145;80;21021;-49
2021/07/10 06:13:43;;;;;;;9.68;7.90;;;;;;;32.05;39.79;101654.04;1747678;81;20947;-50
2021/07/10 06:16:10;;;;;;;10.13;8.45;;;;;;;32.15;39.69;101656.66;1762236;80;21467;-48
2021/07/10 06:18:38;;;;;;;11.10;7.97;;;;;;;32.24;39.74;101657.61;1740944;80;20982;-50
2021/07/10 06:21:05;;;;;;;15.48;8.25;;;;;;;32.39;39.64;101657.45;1751484;81;20982;-47
2021/07/10 06:23:31;;;;;;;10.13;8.50;;;;;;;32.57;39.25;101652.95;1747144;80;20984;-51
2021/07/10 06:25:58;;;;;;;11.45;7.85;;;;;;;32.77;38.19;101647.73;1751774;80;21027;-49
2021/07/10 06:28:25;;;;;;;10.50;8.80;;;;;;;32.93;37.67;101647.91;1757932;80;21493;-48
2021/07/10 06:30:51;;;;;;;13.13;8.15;;;;;;;33.04;36.77;101646.81;1750776;80;21188;-49
2021/07/10 06:33:18;;;;;;;12.78;8.25;;;;;;;33.09;36.76;101645.36;1756100;81;20982;-49
2021/07/10 06:35:45;;;;;;;11.85;7.90;;;;;;;33.08;36.71;101649.05;1749838;80;21507;-48
2021/07/10 06:38:12;;;;;;;9.03;8.00;;;;;;;33.05;36.62;101654.77;1753830;80;20999;-50
2021/07/10 06:40:38;;;;;;;10.25;7.78;;;;;;;32.98;36.83;101650.98;1761086;80;21494;-48
2021/07/10 06:43:05;;;;;;;12.10;7.95;;;;;;;32.93;36.89;101647.91;1742617;80;21492;-48
2021/07/10 06:45:32;;;;;;;18.07;8.25;;;;;;;32.88;36.88;101649.71;1740296;81;21519;-48
2021/07/10 06:48:01;;;;;;;10.20;7.05;;;;;;;32.86;37.09;101647.67;1745339;80;21510;-50
2021/07/10 06:50:27;;;;;;;10.55;7.50;;;;;;;32.83;37.47;101639.88;1739938;81;21049;-51
2021/07/10 06:52:53;;;;;;;14.35;7.25;;;;;;;32.82;36.90;101642.25;1749746;80;21487;-50
2021/07/10 06:55:20;;;;;;;7.40;5.17;;;;;;;32.82;35.92;101633.31;1740244;81;20984;-49
2021/07/10 06:57:48;;;;;;;9.75;5.37;;;;;;;32.81;34.70;101639.69;1748834;80;21011;-49
2021/07/10 07:00:17;;;;;;;9.85;6.15;;;;;;;32.80;34.60;101639.36;1739066;80;21529;-50
2021/07/10 07:02:44;;;;;;;9.93;7.30;;;;;;;32.80;34.98;101634.82;1750671;80;20935;-55
2021/07/10 07:05:11;;;;;;;7.47;6.67;;;;;;;32.81;36.30;101643.23;1744248;81;21534;-49
2021/07/10 07:07:38;;;;;;;9.50;6.95;;;;;;;32.83;36.41;101639.88;1750667;80;21490;-51
2021/07/10 07:10:06;;;;;;;11.88;7.17;;;;;;;32.85;36.29;101638.41;1754860;80;20998;-47
2021/07/10 07:12:34;;;;;;;10.20;7.35;;;;;;;32.87;36.02;101643.95;1752818;80;21616;-49
2021/07/10 07:15:06;;;;;;;9.03;7.08;;;;;;;32.89;36.12;101639.78;1747302;80;21897;-48
2021/07/10 07:17:33;;;;;;;9.95;7.12;;;;;;;32.92;36.31;101639.45;1656591;84;21055;-49
2021/07/10 07:20:00;;;;;;;11.80;7.35;;;;;;;32.97;37.63;101641.69;1669454;84;21195;-46
2021/07/10 07:24:25;;;;;;;12.18;7.33;;;;;;;32.69;38.51;101636.89;1801774;78;22299;-59
2021/07/10 07:26:52;;;;;;;8.88;6.35;;;;;;;33.07;37.71;101637.93;1788578;80;20963;-59
2021/07/10 07:29:19;;;;;;;11.25;7.78;;;;;;;33.17;37.28;101630.58;1772284;80;21005;-58
2021/07/10 07:31:45;;;;;;;9.58;5.90;;;;;;;33.26;37.38;101638.23;1786943;80;21520;-57
2021/07/10 07:34:12;;;;;;;6.45;4.60;;;;;;;33.33;35.97;101634.73;1782442;80;20994;-59
2021/07/10 07:36:39;;;;;;;9.28;4.20;;;;;;;33.38;34.38;101640.51;1774232;80;20998;-59
2021/07/10 07:39:06;;;;;;;5.40;4.05;;;;;;;33.41;34.23;101633.42;1791684;80;20959;-59
2021/07/10 07:41:35;;;;;;;5.42;4.42;;;;;;;33.45;33.48;101633.45;1778138;80;21037;-59
2021/07/10 07:44:03;;;;;;;7.20;4.83;;;;;;;33.49;33.33;101631.33;1783307;80;21033;-59
2021/07/10 07:46:30;;;;;;;14.93;4.20;;;;;;;33.52;32.75;101629.15;1787399;80;21005;-58
2021/07/10 07:48:57;;;;;;;4.70;4.15;;;;;;;33.54;32.70;101628.48;1787668;80;21045;-58
2021/07/10 07:51:23;;;;;;;5.45;4.40;;;;;;;33.57;32.52;101631.38;1778873;80;21013;-57
2021/07/10 07:53:51;;;;;;;4.15;3.75;;;;;;;33.57;32.78;101625.45;1787318;80;21006;-59
2021/07/10 07:56:18;;;;;;;7.72;4.50;;;;;;;33.60;32.91;101626.98;1776069;80;21053;-58
2021/07/10 07:58:44;;;;;;;17.00;4.85;;;;;;;33.60;32.91;101623.79;1786808;80;20986;-59
2021/07/10 08:01:11;;;;;;;9.80;4.67;;;;;;;33.62;32.58;101627.67;1784180;80;21007;-59
2021/07/10 08:03:38;;;;;;;8.10;4.17;;;;;;;33.61;32.77;101631.39;1777818;80;20991;-59
2021/07/10 08:06:06;;;;;;;4.72;3.90;;;;;;;33.61;32.98;101627.34;1766684;80;21081;-58
2021/07/10 08:08:36;;;;;;;6.90;4.35;;;;;;;33.62;33.07;101633.06;1778119;80;21065;-58
2021/07/10 08:11:06;;;;;;;5.33;4.07;;;;;;;33.64;32.69;101629.70;1774892;80;21081;-58
2021/07/10 08:13:34;;;;;;;;;;;;;;;33.62;32.48;101629.87;1713215;83;20978;-58
2021/07/10 08:16:01;;;;;;;6.87;4.25;;;;;;;33.58;32.73;101629.85;1711653;82;20113;-59
2021/07/10 08:18:30;;;;;;;7.20;4.78;;;;;;;33.56;33.15;101627.82;1702363;83;21098;-58
2021/07/10 08:20:56;;;;;;;4.55;3.95;;;;;;;33.60;33.42;101628.33;1702073;84;21098;-59
2021/07/10 08:23:24;;;;;;;6.00;4.62;;;;;;;33.67;33.47;101631.23;1701643;82;21122;-58
2021/07/10 08:25:52;;;;;;;5.37;4.67;;;;;;;33.72;33.39;101628.92;1706229;83;21479;-58
2021/07/10 08:28:18;;;;;;;5.10;4.37;;;;;;;33.77;32.98;101632.81;1703308;83;21043;-58
2021/07/10 08:30:45;;;;;;;6.87;4.42;;;;;;;33.79;33.10;101628.09;1708314;82;21541;-59
2021/07/10 08:33:12;;;;;;;7.15;4.42;;;;;;;33.83;32.40;101625.91;1700513;83;21071;-59
2021/07/10 08:35:39;;;;;;;7.95;4.40;;;;;;;33.85;32.12;101626.59;1701460;82;21090;-57
2021/07/10 08:38:06;;;;;;;6.33;4.95;;;;;;;33.87;32.60;101623.22;1713889;82;21000;-57
2021/07/10 08:40:33;;;;;;;8.95;4.55;;;;;;;33.90;32.28;101620.21;1711140;83;21549;-58
2021/07/10 08:42:59;;;;;;;15.13;4.62;;;;;;;33.94;32.20;101631.03;1705714;83;21082;-58
2021/07/10 08:45:31;;;;;;;5.28;4.70;;;;;;;33.99;32.05;101623.27;1699578;83;21118;-58
2021/07/10 08:48:01;;;;;;;8.08;4.50;;;;;;;34.04;31.35;101629.06;1696039;84;21046;-59
2021/07/10 08:50:28;;;;;;;4.58;4.17;;;;;;;34.08;30.69;101626.37;1696156;84;21046;-59
2021/07/10 08:52:54;;;;;;;6.50;5.42;;;;;;;34.13;30.13;101625.36;1703673;83;20991;-58
2021/07/10 08:55:21;;;;;;;9.55;5.12;;;;;;;34.16;32.73;101629.09;1699897;83;21074;-58
2021/07/10 08:57:48;;;;;;;7.55;5.47;;;;;;;34.18;33.90;101627.08;1713114;82;21470;-58
2021/07/10 09:00:19;;;;;;;7.10;5.03;;;;;;;34.18;34.42;101629.28;1704221;83;21027;-58
2021/07/10 09:02:49;;;;;;;13.90;5.47;;;;;;;34.20;34.25;101629.10;1697754;83;21031;-58
2021/07/10 09:05:16;;;;;;;6.28;4.87;;;;;;;34.22;33.75;101626.59;1698382;83;21082;-58
2021/07/10 09:08:16;;;;;;;6.37;4.78;;;;;;;34.25;34.58;101622.19;1694046;83;21051;-58
2021/07/10 09:10:46;;;;;;;7.55;4.60;;;;;;;34.30;34.07;101629.80;1669760;83;21120;-59
2021/07/10 09:13:13;;;;;;;6.58;5.10;;;;;;;34.32;33.23;101623.73;1631635;86;21068;-58
2021/07/10 09:15:40;;;;;;;8.65;5.05;;;;;;;34.35;32.64;101624.27;1631280;86;21537;-58
2021/07/10 09:18:09;;;;;;;4.83;4.42;;;;;;;34.38;32.20;101624.41;1627457;86;21053;-58
2021/07/10 09:20:36;;;;;;;8.80;5.20;;;;;;;34.42;31.83;101623.06;1617020;87;21524;-58
2021/07/10 09:23:05;;;;;;;6.97;4.83;;;;;;;34.45;32.81;101617.34;1621215;87;21092;-58
2021/07/10 09:25:32;;;;;;;6.25;4.50;;;;;;;34.48;33.82;101618.87;1623141;86;21046;-58
2021/07/10 09:28:05;;;;;;;4.95;4.37;;;;;;;34.50;33.74;101620.40;1627162;87;21556;-58
2021/07/10 09:30:37;;;;;;;7.28;4.55;;;;;;;34.53;33.08;101617.38;1622666;87;21097;-58
2021/07/10 09:33:18;;;;;;;6.10;4.80;;;;;;;34.55;33.58;101619.41;1626678;86;21032;-58
2021/07/10 09:35:58;;;;;;;8.45;4.33;;;;;;;34.57;33.92;101614.67;1639430;86;21033;-58
2021/07/10 09:38:35;;;;;;;7.30;4.65;;;;;;;34.62;33.17;101616.38;1630251;87;21590;-57
2021/07/10 09:41:07;;;;;;;6.50;4.65;;;;;;;34.65;33.45;101620.58;1630923;87;21579;-59
2021/07/10 09:43:37;;;;;;;12.13;5.33;;;;;;;34.64;34.13;101617.06;1625200;87;21562;-59
2021/07/10 09:46:05;;;;;;;8.28;4.90;;;;;;;34.66;34.38;101612.33;1628649;87;21069;-59
2021/07/10 09:48:36;;;;;;;6.75;4.75;;;;;;;34.67;34.83;101619.41;1688658;83;21005;-59
2021/07/10 09:51:25;;;;;;;7.72;4.62;;;;;;;34.66;33.81;101621.79;1724230;83;21061;-59
2021/07/10 09:54:07;;;;;;;11.65;4.80;;;;;;;34.67;33.93;101611.30;1720423;83;21032;-58
2021/07/10 09:56:37;;;;;;;10.25;4.90;;;;;;;34.70;34.47;101610.98;1715814;83;21073;-58
2021/07/10 09:59:18;;;;;;;10.03;4.83;;;;;;;34.72;34.30;101614.36;1718360;83;21066;-59
2021/07/10 10:01:46;;;;;;;8.33;4.50;;;;;;;34.74;34.34;101608.77;1705453;83;21026;-57
2021/07/10 10:04:27;;;;;;;6.00;4.25;;;;;;;34.74;34.52;101604.22;1715596;83;21053;-57
2021/07/10 10:06:55;;;;;;;6.47;4.40;;;;;;;34.75;33.70;101600.48;1714692;83;21038;-58
2021/07/10 10:09:28;;;;;;;9.88;4.85;;;;;;;34.76;32.77;101598.63;1707746;83;21089;-58
2021/07/10 10:12:11;;;;;;;8.10;4.95;;;;;;;34.76;32.74;101602.19;1653677;86;21077;-58
2021/07/10 10:14:48;;;;;;;5.85;4.30;;;;;;;34.78;32.99;101589.84;1653543;86;21007;-59
2021/07/10 10:17:16;;;;;;;6.80;5.67;;;;;;;34.80;33.18;101595.92;1653739;86;21574;-58
2021/07/10 10:19:43;;;;;;;5.47;4.97;;;;;;;34.80;33.15;101595.42;1654926;86;21103;-57
2021/07/10 10:22:12;;;;;;;7.60;4.67;;;;;;;34.83;33.16;101591.01;1654292;86;21048;-57
2021/07/10 10:24:41;;;;;;;6.17;4.85;;;;;;;34.86;33.24;101597.45;1638673;86;21132;-58
2021/07/10 10:27:08;;;;;;;9.58;5.10;;;;;;;34.88;32.64;101590.00;1617612;88;21076;-58
2021/07/10 10:29:35;;;;;;;13.40;5.08;;;;;;;34.91;33.08;101589.65;1613236;88;21772;-58
2021/07/10 10:32:06;;;;;;;6.20;4.70;;;;;;;34.93;33.61;101582.20;1612895;88;21199;-58
2021/07/10 10:34:34;;;;;;;7.12;5.00;;;;;;;34.99;33.43;101586.14;1582419;90;21088;-58
2021/07/10 10:37:04;;;;;;;9.95;5.17;;;;;;;35.00;33.01;101583.26;1641220;86;21058;-59
2021/07/10 10:39:35;;;;;;;5.83;5.10;;;;;;;35.03;32.73;101579.37;1640381;86;21069;-58
2021/07/10 10:42:22;;;;;;;5.37;4.40;;;;;;;35.05;32.48;101575.48;1648369;86;21013;-59
2021/07/10 10:44:54;;;;;;;11.95;5.55;;;;;;;35.06;32.54;101577.16;1600913;89;21061;-58
2021/07/10 10:47:22;;;;;;;6.30;5.70;;;;;;;35.10;32.42;101573.09;1589054;89;21041;-60
2021/07/10 10:49:55;;;;;;;6.95;5.53;;;;;;;35.11;32.37;101570.73;1598402;89;21074;-59
2021/07/10 10:52:46;;;;;;;5.90;5.33;;;;;;;35.13;31.95;101563.80;1546682;91;21120;-60
2021/07/10 10:55:18;;;;;;;9.30;5.58;;;;;;;35.16;31.53;101569.69;1560496;91;21105;-59
2021/07/10 10:57:53;;;;;;;8.53;5.55;;;;;;;35.19;31.61;101570.72;1522090;93;21123;-59
2021/07/10 11:00:31;;;;;;;6.53;5.58;;;;;;;35.23;31.65;101569.84;1557499;91;21054;-60
2021/07/10 11:03:10;;;;;;;6.58;5.67;;;;;;;35.29;31.60;101569.16;1546889;91;21101;-59
2021/07/10 11:05:45;;;;;;;8.25;6.33;;;;;;;35.33;31.52;101569.64;1556496;91;21088;-59
2021/07/10 11:08:23;;;;;;;9.85;6.37;;;;;;;35.35;30.88;101564.90;1543648;92;21110;-59
2021/07/10 11:11:00;;;;;;;10.30;6.35;;;;;;;35.34;30.83;101563.22;1500794;95;21114;-59
2021/07/10 11:13:40;;;;;;;7.67;6.15;;;;;;;35.36;31.01;101566.59;1501855;95;21651;-59
2021/07/10 11:16:16;;;;;;;8.95;5.37;;;;;;;35.38;31.34;101557.80;1491695;95;21158;-59
2021/07/10 11:19:06;;;;;;;7.97;6.00;;;;;;;35.38;31.22;101564.56;1495534;95;21106;-59
2021/07/10 11:21:39;;;;;;;7.00;6.00;;;;;;;35.38;31.25;101555.09;1509845;92;21117;-59
2021/07/10 11:24:24;;;;;;;6.40;5.78;;;;;;;35.39;31.06;101557.61;1538113;92;21139;-59
2021/07/10 11:27:01;;;;;;;6.87;6.10;;;;;;;35.41;30.80;101554.72;1544930;93;21080;-59
2021/07/10 11:29:40;;;;;;;7.87;6.17;;;;;;;35.44;30.97;101562.01;1545226;93;21531;-59